createdAt,value
2019-03-18T00:01:33.096Z,62.19
2019-03-18T00:04:07.345Z,62.19
2019-03-18T00:06:40.415Z,62.78
2019-03-18T00:09:13.198Z,62.41
2019-03-18T00:11:45.724Z,64.39
2019-03-18T00:14:18.135Z,63.75
2019-03-18T00:16:50.696Z,64.85
2019-03-18T00:19:24.505Z,64.15
2019-03-18T00:21:57.264Z,63.78
2019-03-18T00:24:29.975Z,64.03
2019-03-18T00:27:02.605Z,63.96
2019-03-18T00:29:35.045Z,64.57
2019-03-18T00:32:07.665Z,65.17
2019-03-18T00:34:40.414Z,65.12
2019-03-18T00:37:13.354Z,65.29
2019-03-18T00:39:45.835Z,65.65
2019-03-18T00:42:18.489Z,66.13
2019-03-18T00:44:50.916Z,66.57
2019-03-18T00:47:23.355Z,66.29
2019-03-18T00:49:54.663Z,66.44
2019-03-18T00:52:27.026Z,70.20
2019-03-18T00:54:59.514Z,66.29
2019-03-18T00:57:30.774Z,66.46
2019-03-18T01:00:02.905Z,70.17
2019-03-18T01:02:35.665Z,66.55
2019-03-18T01:05:08.235Z,66.61
2019-03-18T01:07:40.534Z,67.01
2019-03-18T01:10:13.355Z,65.97
2019-03-18T01:12:46.938Z,65.91
2019-03-18T01:15:27.985Z,67.21
2019-03-18T01:17:53.787Z,65.84
2019-03-18T01:20:26.865Z,66.34
2019-03-18T01:22:59.655Z,65.81
2019-03-18T01:25:32.049Z,66.56
2019-03-18T01:28:04.615Z,67.44
2019-03-18T01:30:36.985Z,66.33
2019-03-18T01:33:09.465Z,65.89
2019-03-18T01:35:42.025Z,66.09
2019-03-18T01:38:14.726Z,67.23
2019-03-18T01:40:47.145Z,65.79
2019-03-18T01:43:19.565Z,67.15
2019-03-18T01:45:52.106Z,67.81
2019-03-18T01:48:24.645Z,68.02
2019-03-18T01:50:57.073Z,67.95
2019-03-18T01:53:29.795Z,69.62
2019-03-18T01:56:02.934Z,72.18
2019-03-18T01:58:43.382Z,71.78
2019-03-18T02:01:23.639Z,71.14
2019-03-18T02:04:04.785Z,72.03
2019-03-18T02:06:43.966Z,75.12
2019-03-18T02:09:23.518Z,76.56
2019-03-18T02:15:18.395Z,74.29
2019-03-18T02:18:02.145Z,76.49
2019-03-18T02:20:36.124Z,75.82
2019-03-18T02:23:08.941Z,73.76
2019-03-18T02:25:44.560Z,74.74
2019-03-18T02:28:17.365Z,75.13
2019-03-18T02:30:52.376Z,74.44
2019-03-18T02:33:28.327Z,75.05
2019-03-18T02:36:05.240Z,76.53
2019-03-18T02:39:25.846Z,78.55
2019-03-18T02:42:11.333Z,77.07
2019-03-18T02:44:43.919Z,76.83
2019-03-18T02:47:16.529Z,75.04
2019-03-18T02:49:48.996Z,77.33
2019-03-18T02:52:21.845Z,76.96
2019-03-18T02:54:55.007Z,77.72
2019-03-18T02:57:51.480Z,76.65
2019-03-18T03:08:28.236Z,77.68
2019-03-18T03:11:41.320Z,76.65
2019-03-18T03:14:30.051Z,77.01
2019-03-18T03:17:13.166Z,76.14
2019-03-18T03:19:52.285Z,76.70
2019-03-18T03:22:36.823Z,77.17
2019-03-18T03:28:22.066Z,76.99
2019-03-18T03:31:23.759Z,77.72
2019-03-18T03:34:41.015Z,77.24
2019-03-18T03:37:57.650Z,77.70
2019-03-18T03:41:18.740Z,78.74
2019-03-18T03:44:24.765Z,77.62
2019-03-18T03:47:11.891Z,77.99
2019-03-18T03:50:10.708Z,77.82
2019-03-18T03:52:52.175Z,78.05
2019-03-18T03:59:18.324Z,78.78
2019-03-18T04:02:06.666Z,79.27
2019-03-18T04:04:46.726Z,79.33
2019-03-18T04:07:38.520Z,79.56
2019-03-18T04:10:14.119Z,79.89
2019-03-18T04:12:55.010Z,79.91
2019-03-18T04:16:25.724Z,79.77
2019-03-18T04:19:55.314Z,80.11
2019-03-18T04:23:39.986Z,79.81
2019-03-18T04:25:43.179Z,79.96
2019-03-18T04:28:41.536Z,80.00
2019-03-18T04:31:30.650Z,79.83
2019-03-18T04:34:11.034Z,79.86
2019-03-18T04:36:57.176Z,79.38
2019-03-18T04:39:31.716Z,79.28
2019-03-18T04:42:11.313Z,80.41
2019-03-18T04:44:57.625Z,79.78
2019-03-18T04:47:30.584Z,80.05
2019-03-18T04:50:03.345Z,80.84
2019-03-18T04:52:36.005Z,80.25
2019-03-18T04:55:08.760Z,80.11
2019-03-18T04:57:42.003Z,80.15
2019-03-18T05:00:14.681Z,80.38
2019-03-18T05:02:47.439Z,80.42
2019-03-18T05:05:20.335Z,80.51
2019-03-18T05:07:54.147Z,81.18
2019-03-18T05:10:27.325Z,80.33
2019-03-18T05:13:57.234Z,81.06
2019-03-18T05:16:44.635Z,80.64
2019-03-18T05:19:27.674Z,80.67
2019-03-18T05:22:01.115Z,80.72
2019-03-18T05:24:37.235Z,80.96
2019-03-18T05:27:24.689Z,80.52
2019-03-18T05:30:19.035Z,80.84
2019-03-18T05:33:16.855Z,80.76
2019-03-18T05:36:29.814Z,80.67
2019-03-18T05:48:33.165Z,80.79
2019-03-18T06:09:22.295Z,80.20
2019-03-18T06:11:56.929Z,80.33
2019-03-18T06:40:23.623Z,80.50
2019-03-18T07:47:02.619Z,78.39
2019-03-18T07:56:46.913Z,77.06
2019-03-18T07:59:35.676Z,77.42
2019-03-18T08:02:30.896Z,77.64
2019-03-18T08:05:03.585Z,76.21
2019-03-18T08:07:36.208Z,77.65
2019-03-18T08:10:39.694Z,76.80
2019-03-18T08:17:39.124Z,74.32
2019-03-18T08:20:22.347Z,76.24
2019-03-18T08:23:40.995Z,74.71
2019-03-18T08:30:52.685Z,74.09
2019-03-18T08:40:26.766Z,72.11
2019-03-18T08:43:03.465Z,72.32
2019-03-18T08:45:44.795Z,71.80
2019-03-18T08:48:33.285Z,71.13
2019-03-18T08:51:16.865Z,71.51
2019-03-18T08:54:09.528Z,71.35
2019-03-18T08:56:49.644Z,68.88
2019-03-18T08:59:22.115Z,69.55
2019-03-18T09:02:22.686Z,69.30
2019-03-18T09:05:04.800Z,68.24
2019-03-18T09:07:38.675Z,68.12
2019-03-18T09:13:26.889Z,67.02
2019-03-18T09:16:07.385Z,67.55
2019-03-18T09:18:39.935Z,66.65
2019-03-18T09:21:14.664Z,67.19
2019-03-18T09:23:48.156Z,65.75
2019-03-18T09:26:24.235Z,65.97
2019-03-18T09:29:01.278Z,65.12
2019-03-18T09:31:38.246Z,64.08
2019-03-18T09:34:15.661Z,62.78
2019-03-18T09:36:55.154Z,63.76
2019-03-18T09:39:38.206Z,64.69
2019-03-18T09:45:13.445Z,64.46
2019-03-18T09:47:46.004Z,65.06
2019-03-18T09:50:20.207Z,65.11
2019-03-18T09:53:08.065Z,65.18
2019-03-18T09:55:40.638Z,64.04
2019-03-18T09:58:13.355Z,64.23
2019-03-18T10:00:55.572Z,65.69
2019-03-18T10:03:28.003Z,65.31
2019-03-18T10:38:42.615Z,58.29
2019-03-18T10:41:53.479Z,59.28
2019-03-18T10:50:46.725Z,58.12
2019-03-18T10:52:07.207Z,55.74
2019-03-18T10:58:39.905Z,57.94
2019-03-18T11:05:08.138Z,54.91
2019-03-18T11:07:43.954Z,56.73
2019-03-18T11:10:19.101Z,52.50
2019-03-18T11:12:55.015Z,51.82
2019-03-18T11:15:27.665Z,53.62
2019-03-18T11:18:00.257Z,51.43
2019-03-18T11:20:33.956Z,51.42
2019-03-18T11:26:21.016Z,54.16
2019-03-18T11:28:59.444Z,55.06
2019-03-18T11:31:31.755Z,56.68
2019-03-18T11:34:04.436Z,56.38
2019-03-18T11:36:36.836Z,57.06
2019-03-18T11:39:09.964Z,54.99
2019-03-18T11:41:42.569Z,56.74
2019-03-18T11:44:15.075Z,54.62
2019-03-18T11:46:48.297Z,55.96
2019-03-18T11:49:23.095Z,57.32
2019-03-18T11:56:09.116Z,58.02
2019-03-18T11:59:02.696Z,57.47
2019-03-18T12:01:54.926Z,57.69
2019-03-18T12:04:50.774Z,57.90
2019-03-18T12:08:36.855Z,56.93
2019-03-18T12:25:35.053Z,66.91
2019-03-18T12:28:26.345Z,67.92
2019-03-18T12:34:38.175Z,68.09
2019-03-18T12:37:10.705Z,68.26
2019-03-18T12:39:44.277Z,68.31
2019-03-18T12:42:17.115Z,68.52
2019-03-18T12:44:49.618Z,68.57
2019-03-18T12:47:25.527Z,68.41
2019-03-18T12:50:00.761Z,68.21
2019-03-18T12:52:33.365Z,68.38
2019-03-18T12:55:09.767Z,66.75
2019-03-18T12:57:42.306Z,65.88
2019-03-18T13:00:29.533Z,65.58
2019-03-18T13:03:03.708Z,65.03
2019-03-18T13:09:20.160Z,65.66
2019-03-18T13:12:01.035Z,65.88
2019-03-18T13:14:33.535Z,65.52
2019-03-18T13:17:10.454Z,65.56
2019-03-18T13:19:46.075Z,65.15
2019-03-18T13:22:18.585Z,65.34
2019-03-18T13:24:51.345Z,65.95
2019-03-18T13:27:23.888Z,64.21
2019-03-18T13:29:57.835Z,63.97
2019-03-18T13:32:59.367Z,63.34
2019-03-18T13:35:39.695Z,62.35
2019-03-18T13:38:36.145Z,58.59
2019-03-18T13:44:31.055Z,54.23
2019-03-18T13:47:03.566Z,54.66
2019-03-18T13:49:36.065Z,54.05
2019-03-18T13:52:14.057Z,53.12
2019-03-18T13:55:04.485Z,52.57
2019-03-18T13:57:38.136Z,51.78
2019-03-18T14:00:13.205Z,49.84
2019-03-18T14:03:19.528Z,49.84
2019-03-18T14:09:53.475Z,49.64
2019-03-18T14:12:37.196Z,50.63
2019-03-18T14:18:40.429Z,49.51
2019-03-18T14:21:19.925Z,49.19
2019-03-18T14:24:48.289Z,48.93
2019-03-18T14:28:06.306Z,51.68
2019-03-18T14:30:55.986Z,50.63
2019-03-18T14:33:40.167Z,50.58
2019-03-18T14:36:14.646Z,53.61
2019-03-18T14:38:49.728Z,53.39
2019-03-18T14:54:28.543Z,52.31
2019-03-18T14:59:40.607Z,53.18
2019-03-18T15:09:09.946Z,51.25
2019-03-18T15:11:44.119Z,51.68
2019-03-18T15:20:22.184Z,51.36
2019-03-18T15:21:58.329Z,53.30
2019-03-18T15:24:34.866Z,51.79
2019-03-18T15:27:14.956Z,55.22
2019-03-18T15:30:45.766Z,56.22
2019-03-18T15:33:15.499Z,57.05
2019-03-18T15:36:16.378Z,55.28
2019-03-18T15:38:59.135Z,53.64
2019-03-18T15:41:36.315Z,55.92
2019-03-18T15:44:13.226Z,56.03
2019-03-18T15:46:50.674Z,55.33
2019-03-18T15:49:50.926Z,56.74
2019-03-18T15:55:24.330Z,57.32
2019-03-18T15:58:04.760Z,58.07
2019-03-18T16:00:40.466Z,56.88
2019-03-18T16:03:12.982Z,58.30
2019-03-18T16:05:51.185Z,57.37
2019-03-18T16:08:29.026Z,59.01
2019-03-18T16:11:18.265Z,59.03
2019-03-18T16:13:54.197Z,59.26
2019-03-18T16:16:36.145Z,60.03
2019-03-18T16:19:10.062Z,60.66
2019-03-18T16:21:44.096Z,60.33
2019-03-18T16:24:17.246Z,61.41
2019-03-18T16:26:54.836Z,61.83
2019-03-18T16:30:09.324Z,62.15
2019-03-18T16:32:53.206Z,62.15
2019-03-18T16:35:29.014Z,61.64
2019-03-18T16:38:02.763Z,61.63
2019-03-18T16:40:39.057Z,61.42
2019-03-18T16:43:12.834Z,60.78
2019-03-18T16:45:48.186Z,61.00
2019-03-18T16:48:33.465Z,60.87
2019-03-18T16:51:17.947Z,60.47
2019-03-18T16:53:58.776Z,60.82
2019-03-18T16:56:42.535Z,60.22
2019-03-18T16:59:15.116Z,59.75
2019-03-18T17:01:48.099Z,60.40
2019-03-18T17:04:22.525Z,60.45
2019-03-18T17:06:54.985Z,60.59
2019-03-18T17:09:27.625Z,60.46
2019-03-18T17:12:00.085Z,60.18
2019-03-18T17:14:32.715Z,60.35
2019-03-18T17:17:06.768Z,60.55
2019-03-18T17:19:40.355Z,59.62
2019-03-18T17:22:13.452Z,60.28
2019-03-18T17:24:48.933Z,60.60
2019-03-18T17:27:20.276Z,60.31
2019-03-18T17:29:53.347Z,60.48
2019-03-18T17:32:28.704Z,60.51
2019-03-18T17:35:01.639Z,60.69
2019-03-18T17:37:34.075Z,60.78
2019-03-18T17:40:28.012Z,60.82
2019-03-18T17:43:20.916Z,60.83
2019-03-18T17:46:15.816Z,60.97
2019-03-18T17:49:41.495Z,60.75
2019-03-18T17:52:14.626Z,61.00
2019-03-18T17:55:00.391Z,61.12
2019-03-18T17:58:12.405Z,60.78
2019-03-18T18:07:14.560Z,61.21
2019-03-18T18:09:49.384Z,61.01
2019-03-18T18:12:23.200Z,60.05
2019-03-18T18:15:00.206Z,60.67
2019-03-18T18:17:34.625Z,60.45
2019-03-18T18:20:12.666Z,60.25
2019-03-18T18:22:58.477Z,59.36
2019-03-18T18:26:00.683Z,60.46
2019-03-18T18:29:11.245Z,60.37
2019-03-18T18:31:51.395Z,60.46
2019-03-18T18:34:34.494Z,60.23
2019-03-18T18:37:44.204Z,60.35
2019-03-18T18:40:31.436Z,60.35
2019-03-18T18:43:11.475Z,60.20
2019-03-18T18:45:54.975Z,60.21
2019-03-18T18:48:40.614Z,60.64
2019-03-18T18:51:15.794Z,60.26
2019-03-18T18:54:20.343Z,59.97
2019-03-18T18:57:13.154Z,60.40
2019-03-18T18:59:47.305Z,58.94
2019-03-18T19:02:34.495Z,60.30
2019-03-18T19:05:23.772Z,61.11
2019-03-18T19:08:20.355Z,61.43
2019-03-18T19:11:16.725Z,61.95
2019-03-18T19:14:04.385Z,62.67
2019-03-18T19:16:54.925Z,62.98
2019-03-18T19:19:34.658Z,62.94
2019-03-18T19:22:30.046Z,63.42
2019-03-18T19:25:04.224Z,63.91
2019-03-18T19:27:36.806Z,64.14
2019-03-18T19:30:16.493Z,64.17
2019-03-18T19:33:09.168Z,64.12
2019-03-18T19:39:27.384Z,64.46
2019-03-18T19:53:21.635Z,64.46
2019-03-18T19:59:38.885Z,64.58
2019-03-18T20:02:52.197Z,65.04
2019-03-18T20:05:45.565Z,64.94
2019-03-18T20:09:27.028Z,65.25
2019-03-18T20:15:02.173Z,65.23
2019-03-18T20:17:34.885Z,65.22
2019-03-18T20:20:08.316Z,65.42
2019-03-18T20:26:54.096Z,65.51
2019-03-18T20:32:56.945Z,65.53
2019-03-18T20:35:38.804Z,65.09
2019-03-18T20:38:39.984Z,65.03
2019-03-18T20:58:12.883Z,64.87
2019-03-18T21:01:08.878Z,64.98
2019-03-18T21:07:55.655Z,65.26
2019-03-18T21:11:06.195Z,65.26
2019-03-18T21:14:18.905Z,65.02
2019-03-18T21:35:45.615Z,66.08
2019-03-18T21:42:40.433Z,65.62
2019-03-18T21:45:16.535Z,65.26
2019-03-18T21:48:08.378Z,65.02
2019-03-18T21:50:44.185Z,65.17
2019-03-18T21:53:19.927Z,65.35
2019-03-18T21:55:53.577Z,65.77
2019-03-18T21:58:39.585Z,65.86
2019-03-18T22:01:31.665Z,65.84
2019-03-18T22:04:04.405Z,65.94
2019-03-18T22:06:38.985Z,66.12
2019-03-18T22:09:11.706Z,66.32
2019-03-18T22:14:34.386Z,67.23
2019-03-18T22:17:40.285Z,67.68
2019-03-18T22:24:12.579Z,68.10
2019-03-18T22:26:49.404Z,68.25
2019-03-18T22:36:03.538Z,68.83
2019-03-18T22:41:33.305Z,69.12
2019-03-18T22:44:06.863Z,69.39
2019-03-18T22:47:19.835Z,70.25
2019-03-18T22:50:05.706Z,69.38
2019-03-18T22:52:38.204Z,69.24
2019-03-18T22:55:15.139Z,69.19
2019-03-18T22:57:55.896Z,69.47
2019-03-18T23:04:09.279Z,69.79
2019-03-18T23:14:19.115Z,69.44
2019-03-18T23:16:55.109Z,69.22
2019-03-18T23:19:27.616Z,69.27
2019-03-18T23:22:00.856Z,68.71
2019-03-18T23:24:35.343Z,68.68
2019-03-18T23:27:07.926Z,68.26
2019-03-18T23:29:40.565Z,67.95
2019-03-18T23:32:12.905Z,68.13
2019-03-18T23:35:00.519Z,68.26
2019-03-18T23:37:32.907Z,68.38
2019-03-18T23:40:06.398Z,68.31
2019-03-18T23:42:56.425Z,68.53
2019-03-18T23:45:29.076Z,68.41
2019-03-18T23:48:01.456Z,68.10
2019-03-18T23:50:57.075Z,68.05
2019-03-18T23:53:35.235Z,67.99
2019-03-18T23:56:18.963Z,68.31
2019-03-18T23:59:14.955Z,68.41
